Strona główna
METAR-TAF:

METAR-TAF

Lotnisko :

Caldwell, New Jersey, Stany Zjednoczone

Szerokość geograficzna: 40-52-35N, Długość geograficzna: 074-16-59W, wysokość: 52 m

Aktualna obserwacja pogody

Raport powstał 1 godzina i 16 minut temu, godzina 09:53 UTC
Wiatr 5 kt od wschodnio-północny wschód
Temperatura 3°C
Wilgotność 60%
Ciśnienie 1028 hPa
Widzialność: 16.1 km
Zachmurzenie całkowite na wysokości 12000 ft

METAR: KCDW 180953Z AUTO 06005KT 10SM OVC120 03/M04 A3035 RMK AO2 SLP285 T00281044

czas: 06:09 (11:09 UTC)


TAF: brakujący

Obserwacja i prognoza pogody dla ponad 4000 lotnisk (raport METAR i TAF).

Dostępne stacje oznaczono żółtymi i czerwonymi punktami na mapie.

Najedź kursorem aby zobaczyć nazwę stacji.

Kliknij aby zobaczyć obserwacje i prognozy pogody.

Aby zmienić mapę: kliknij na zielony przycisk z czarnym krzyżykiem, aby powiększyć; na zielony przycisk z myślnikiem, aby pomniejszyć; na zielone strzałki, aby przejść do map sąsiednich.


METAR-TAF: